sensor_id;sensor_type;location;lat;lon;timestamp;temperature;humidity
37410;DHT22;23275;48.914;12.566;2022-11-25T00:00:46;4.40;99.90
37410;DHT22;23275;48.914;12.566;2022-11-25T00:03:12;4.40;99.90
37410;DHT22;23275;48.914;12.566;2022-11-25T00:05:37;4.30;99.90
37410;DHT22;23275;48.914;12.566;2022-11-25T00:08:03;4.30;99.90
37410;DHT22;23275;48.914;12.566;2022-11-25T00:10:29;4.30;99.90
37410;DHT22;23275;48.914;12.566;2022-11-25T00:12:54;4.20;99.90
37410;DHT22;23275;48.914;12.566;2022-11-25T00:15:20;4.10;99.90
37410;DHT22;23275;48.914;12.566;2022-11-25T00:17:45;4.10;99.90
37410;DHT22;23275;48.914;12.566;2022-11-25T00:20:11;4.00;99.90
37410;DHT22;23275;48.914;12.566;2022-11-25T00:22:37;3.90;99.90
37410;DHT22;23275;48.914;12.566;2022-11-25T00:25:02;3.80;99.90
37410;DHT22;23275;48.914;12.566;2022-11-25T00:27:28;3.70;99.90
37410;DHT22;23275;48.914;12.566;2022-11-25T00:29:54;3.70;99.90
37410;DHT22;23275;48.914;12.566;2022-11-25T00:32:19;3.60;99.90
37410;DHT22;23275;48.914;12.566;2022-11-25T00:34:45;3.60;99.90
37410;DHT22;23275;48.914;12.566;2022-11-25T00:37:12;3.60;99.90
37410;DHT22;23275;48.914;12.566;2022-11-25T00:39:38;3.60;99.90
37410;DHT22;23275;48.914;12.566;2022-11-25T00:42:03;3.50;99.90
37410;DHT22;23275;48.914;12.566;2022-11-25T00:44:47;3.50;99.90
37410;DHT22;23275;48.914;12.566;2022-11-25T00:47:18;3.40;99.90
37410;DHT22;23275;48.914;12.566;2022-11-25T00:49:50;3.40;99.90
37410;DHT22;23275;48.914;12.566;2022-11-25T00:52:21;3.40;99.90
37410;DHT22;23275;48.914;12.566;2022-11-25T00:54:48;3.40;99.90
37410;DHT22;23275;48.914;12.566;2022-11-25T00:57:15;3.40;99.90
37410;DHT22;23275;48.914;12.566;2022-11-25T00:59:41;3.40;99.90
37410;DHT22;23275;48.914;12.566;2022-11-25T01:02:07;3.30;99.90
37410;DHT22;23275;48.914;12.566;2022-11-25T01:04:34;3.20;99.90
37410;DHT22;23275;48.914;12.566;2022-11-25T01:06:59;3.20;99.90
37410;DHT22;23275;48.914;12.566;2022-11-25T01:09:27;3.10;99.90
37410;DHT22;23275;48.914;12.566;2022-11-25T01:11:52;3.20;99.90
37410;DHT22;23275;48.914;12.566;2022-11-25T01:14:19;3.20;99.90
37410;DHT22;23275;48.914;12.566;2022-11-25T01:16:46;3.20;99.90
37410;DHT22;23275;48.914;12.566;2022-11-25T01:19:11;3.20;99.90
37410;DHT22;23275;48.914;12.566;2022-11-25T01:21:37;3.10;99.90
37410;DHT22;23275;48.914;12.566;2022-11-25T01:24:04;3.00;99.90
37410;DHT22;23275;48.914;12.566;2022-11-25T01:26:30;3.00;99.90
37410;DHT22;23275;48.914;12.566;2022-11-25T01:28:59;3.00;99.90
37410;DHT22;23275;48.914;12.566;2022-11-25T01:31:28;2.90;99.90
37410;DHT22;23275;48.914;12.566;2022-11-25T01:34:00;2.90;99.90
37410;DHT22;23275;48.914;12.566;2022-11-25T01:36:26;2.90;99.90
37410;DHT22;23275;48.914;12.566;2022-11-25T01:38:54;2.90;99.90
37410;DHT22;23275;48.914;12.566;2022-11-25T01:41:21;2.90;99.90
37410;DHT22;23275;48.914;12.566;2022-11-25T01:44:23;2.90;99.90
37410;DHT22;23275;48.914;12.566;2022-11-25T01:46:53;2.90;99.90
37410;DHT22;23275;48.914;12.566;2022-11-25T01:49:45;2.90;99.90
37410;DHT22;23275;48.914;12.566;2022-11-25T01:52:11;2.80;99.90
37410;DHT22;23275;48.914;12.566;2022-11-25T01:54:43;2.80;99.90
37410;DHT22;23275;48.914;12.566;2022-11-25T01:57:14;2.80;99.90
37410;DHT22;23275;48.914;12.566;2022-11-25T01:59:45;2.90;99.90
37410;DHT22;23275;48.914;12.566;2022-11-25T02:02:12;2.90;99.90
37410;DHT22;23275;48.914;12.566;2022-11-25T02:04:39;3.00;99.90
37410;DHT22;23275;48.914;12.566;2022-11-25T02:07:10;3.00;99.90
37410;DHT22;23275;48.914;12.566;2022-11-25T02:09:40;3.00;99.90
37410;DHT22;23275;48.914;12.566;2022-11-25T02:12:06;3.00;99.90
37410;DHT22;23275;48.914;12.566;2022-11-25T02:14:32;3.00;99.90
37410;DHT22;23275;48.914;12.566;2022-11-25T02:16:59;2.90;99.90
37410;DHT22;23275;48.914;12.566;2022-11-25T02:19:42;2.90;99.90
37410;DHT22;23275;48.914;12.566;2022-11-25T02:22:21;2.80;99.90
37410;DHT22;23275;48.914;12.566;2022-11-25T02:24:51;2.80;99.90
37410;DHT22;23275;48.914;12.566;2022-11-25T02:27:20;2.80;99.90
37410;DHT22;23275;48.914;12.566;2022-11-25T02:29:46;2.60;99.90
37410;DHT22;23275;48.914;12.566;2022-11-25T02:32:12;2.60;99.90
37410;DHT22;23275;48.914;12.566;2022-11-25T02:34:48;2.60;99.90
37410;DHT22;23275;48.914;12.566;2022-11-25T02:37:16;2.50;99.90
37410;DHT22;23275;48.914;12.566;2022-11-25T02:39:43;2.50;99.90
37410;DHT22;23275;48.914;12.566;2022-11-25T02:42:10;2.60;99.90
37410;DHT22;23275;48.914;12.566;2022-11-25T02:44:36;2.60;99.90
37410;DHT22;23275;48.914;12.566;2022-11-25T02:47:01;2.70;99.90
37410;DHT22;23275;48.914;12.566;2022-11-25T02:49:27;2.70;99.90
37410;DHT22;23275;48.914;12.566;2022-11-25T02:51:52;2.80;99.90
37410;DHT22;23275;48.914;12.566;2022-11-25T02:54:18;2.80;99.90
37410;DHT22;23275;48.914;12.566;2022-11-25T02:56:43;2.90;99.90
37410;DHT22;23275;48.914;12.566;2022-11-25T02:59:09;2.90;99.90
37410;DHT22;23275;48.914;12.566;2022-11-25T03:01:36;3.00;99.90
37410;DHT22;23275;48.914;12.566;2022-11-25T03:04:02;3.00;99.90
37410;DHT22;23275;48.914;12.566;2022-11-25T03:06:29;3.10;99.90
37410;DHT22;23275;48.914;12.566;2022-11-25T03:08:55;3.10;99.90
37410;DHT22;23275;48.914;12.566;2022-11-25T03:11:20;3.10;99.90
37410;DHT22;23275;48.914;12.566;2022-11-25T03:14:06;3.10;99.90
37410;DHT22;23275;48.914;12.566;2022-11-25T03:16:32;3.20;99.90
37410;DHT22;23275;48.914;12.566;2022-11-25T03:18:57;3.20;99.90
37410;DHT22;23275;48.914;12.566;2022-11-25T03:21:23;3.30;99.90
37410;DHT22;23275;48.914;12.566;2022-11-25T03:23:48;3.30;99.90
37410;DHT22;23275;48.914;12.566;2022-11-25T03:26:14;3.40;99.90
37410;DHT22;23275;48.914;12.566;2022-11-25T03:28:39;3.40;99.90
37410;DHT22;23275;48.914;12.566;2022-11-25T03:31:09;3.40;99.90
37410;DHT22;23275;48.914;12.566;2022-11-25T03:33:35;3.40;99.90
37410;DHT22;23275;48.914;12.566;2022-11-25T03:36:00;3.30;99.90
37410;DHT22;23275;48.914;12.566;2022-11-25T03:38:26;3.40;99.90
37410;DHT22;23275;48.914;12.566;2022-11-25T03:40:51;3.40;99.90
37410;DHT22;23275;48.914;12.566;2022-11-25T03:43:17;3.30;99.90
37410;DHT22;23275;48.914;12.566;2022-11-25T03:45:43;3.40;99.90
37410;DHT22;23275;48.914;12.566;2022-11-25T03:48:08;3.30;99.90
37410;DHT22;23275;48.914;12.566;2022-11-25T03:50:34;3.30;99.90
37410;DHT22;23275;48.914;12.566;2022-11-25T03:52:59;3.30;99.90
37410;DHT22;23275;48.914;12.566;2022-11-25T03:55:25;3.30;99.90
37410;DHT22;23275;48.914;12.566;2022-11-25T03:57:50;3.30;99.90
37410;DHT22;23275;48.914;12.566;2022-11-25T04:00:16;3.30;99.90
37410;DHT22;23275;48.914;12.566;2022-11-25T04:02:42;3.20;99.90
37410;DHT22;23275;48.914;12.566;2022-11-25T04:05:08;3.20;99.90
37410;DHT22;23275;48.914;12.566;2022-11-25T04:07:34;3.20;99.90
37410;DHT22;23275;48.914;12.566;2022-11-25T04:09:59;3.10;99.90
37410;DHT22;23275;48.914;12.566;2022-11-25T04:12:25;3.10;99.90
37410;DHT22;23275;48.914;12.566;2022-11-25T04:15:09;3.10;99.90
37410;DHT22;23275;48.914;12.566;2022-11-25T04:17:35;3.00;99.90
37410;DHT22;23275;48.914;12.566;2022-11-25T04:20:00;3.00;99.90
37410;DHT22;23275;48.914;12.566;2022-11-25T04:22:26;3.00;99.90
37410;DHT22;23275;48.914;12.566;2022-11-25T04:24:51;3.00;99.90
37410;DHT22;23275;48.914;12.566;2022-11-25T04:27:17;2.90;99.90
37410;DHT22;23275;48.914;12.566;2022-11-25T04:29:44;2.90;99.90
37410;DHT22;23275;48.914;12.566;2022-11-25T04:32:09;2.80;99.90
37410;DHT22;23275;48.914;12.566;2022-11-25T04:34:35;2.80;99.90
37410;DHT22;23275;48.914;12.566;2022-11-25T04:37:01;2.80;99.90
37410;DHT22;23275;48.914;12.566;2022-11-25T04:39:26;2.80;99.90
37410;DHT22;23275;48.914;12.566;2022-11-25T04:41:52;2.80;99.90
37410;DHT22;23275;48.914;12.566;2022-11-25T04:44:40;2.80;99.90
37410;DHT22;23275;48.914;12.566;2022-11-25T04:47:05;2.80;99.90
37410;DHT22;23275;48.914;12.566;2022-11-25T04:49:31;2.80;99.90
37410;DHT22;23275;48.914;12.566;2022-11-25T04:51:57;2.80;99.90
37410;DHT22;23275;48.914;12.566;2022-11-25T04:54:22;2.70;99.90
37410;DHT22;23275;48.914;12.566;2022-11-25T04:56:49;2.60;99.90
37410;DHT22;23275;48.914;12.566;2022-11-25T04:59:14;2.50;99.90
37410;DHT22;23275;48.914;12.566;2022-11-25T05:01:59;2.50;99.90
37410;DHT22;23275;48.914;12.566;2022-11-25T05:04:24;2.40;99.90
37410;DHT22;23275;48.914;12.566;2022-11-25T05:06:50;2.30;99.90
37410;DHT22;23275;48.914;12.566;2022-11-25T05:09:16;2.30;99.90
37410;DHT22;23275;48.914;12.566;2022-11-25T05:11:42;2.30;99.90
37410;DHT22;23275;48.914;12.566;2022-11-25T05:14:07;2.30;99.90
37410;DHT22;23275;48.914;12.566;2022-11-25T05:16:33;2.20;99.90
37410;DHT22;23275;48.914;12.566;2022-11-25T05:18:58;2.20;99.90
37410;DHT22;23275;48.914;12.566;2022-11-25T05:21:24;2.30;99.90
37410;DHT22;23275;48.914;12.566;2022-11-25T05:23:49;2.30;99.90
37410;DHT22;23275;48.914;12.566;2022-11-25T05:26:15;2.30;99.90
37410;DHT22;23275;48.914;12.566;2022-11-25T05:28:40;2.30;99.90
37410;DHT22;23275;48.914;12.566;2022-11-25T05:31:06;2.30;99.90
37410;DHT22;23275;48.914;12.566;2022-11-25T05:33:31;2.30;99.90
37410;DHT22;23275;48.914;12.566;2022-11-25T05:35:59;2.30;99.90
37410;DHT22;23275;48.914;12.566;2022-11-25T05:38:26;2.20;99.90
37410;DHT22;23275;48.914;12.566;2022-11-25T05:40:52;2.20;99.90
37410;DHT22;23275;48.914;12.566;2022-11-25T05:43:18;2.20;99.90
37410;DHT22;23275;48.914;12.566;2022-11-25T05:45:44;2.10;99.90
37410;DHT22;23275;48.914;12.566;2022-11-25T05:48:10;2.00;99.90
37410;DHT22;23275;48.914;12.566;2022-11-25T05:50:36;2.00;99.90
37410;DHT22;23275;48.914;12.566;2022-11-25T05:53:02;2.00;99.90
37410;DHT22;23275;48.914;12.566;2022-11-25T05:55:28;2.00;99.90
37410;DHT22;23275;48.914;12.566;2022-11-25T05:57:53;2.10;99.90
37410;DHT22;23275;48.914;12.566;2022-11-25T06:00:19;2.10;99.90
37410;DHT22;23275;48.914;12.566;2022-11-25T06:02:49;2.10;99.90
37410;DHT22;23275;48.914;12.566;2022-11-25T06:05:15;2.00;99.90
37410;DHT22;23275;48.914;12.566;2022-11-25T06:07:40;2.10;99.90
37410;DHT22;23275;48.914;12.566;2022-11-25T06:10:06;2.10;99.90
37410;DHT22;23275;48.914;12.566;2022-11-25T06:12:32;2.10;99.90
37410;DHT22;23275;48.914;12.566;2022-11-25T06:14:57;2.10;99.90
37410;DHT22;23275;48.914;12.566;2022-11-25T06:17:23;2.20;99.90
37410;DHT22;23275;48.914;12.566;2022-11-25T06:19:48;2.10;99.90
37410;DHT22;23275;48.914;12.566;2022-11-25T06:22:14;2.10;99.90
37410;DHT22;23275;48.914;12.566;2022-11-25T06:24:40;2.00;99.90
37410;DHT22;23275;48.914;12.566;2022-11-25T06:27:05;2.00;99.90
37410;DHT22;23275;48.914;12.566;2022-11-25T06:29:31;1.90;99.90
37410;DHT22;23275;48.914;12.566;2022-11-25T06:31:56;1.90;99.90
37410;DHT22;23275;48.914;12.566;2022-11-25T06:34:22;1.90;99.90
37410;DHT22;23275;48.914;12.566;2022-11-25T06:36:48;1.80;99.90
37410;DHT22;23275;48.914;12.566;2022-11-25T06:39:14;1.80;99.90
37410;DHT22;23275;48.914;12.566;2022-11-25T06:41:39;1.70;99.90
37410;DHT22;23275;48.914;12.566;2022-11-25T06:44:05;1.70;99.90
37410;DHT22;23275;48.914;12.566;2022-11-25T06:46:30;1.70;99.90
37410;DHT22;23275;48.914;12.566;2022-11-25T06:48:58;1.70;99.90
37410;DHT22;23275;48.914;12.566;2022-11-25T06:51:25;1.70;99.90
37410;DHT22;23275;48.914;12.566;2022-11-25T06:53:51;1.70;99.90
37410;DHT22;23275;48.914;12.566;2022-11-25T06:56:24;1.80;99.90
37410;DHT22;23275;48.914;12.566;2022-11-25T06:58:51;1.80;99.90
37410;DHT22;23275;48.914;12.566;2022-11-25T07:01:21;1.80;99.90
37410;DHT22;23275;48.914;12.566;2022-11-25T07:03:49;1.80;99.90
37410;DHT22;23275;48.914;12.566;2022-11-25T07:06:16;1.80;99.90
37410;DHT22;23275;48.914;12.566;2022-11-25T07:08:42;1.90;99.90
37410;DHT22;23275;48.914;12.566;2022-11-25T07:13:46;1.90;99.90
37410;DHT22;23275;48.914;12.566;2022-11-25T07:16:13;1.90;99.90
37410;DHT22;23275;48.914;12.566;2022-11-25T07:18:39;2.00;99.90
37410;DHT22;23275;48.914;12.566;2022-11-25T07:21:13;2.00;99.90
37410;DHT22;23275;48.914;12.566;2022-11-25T07:23:39;2.00;99.90
37410;DHT22;23275;48.914;12.566;2022-11-25T07:26:08;2.10;99.90
37410;DHT22;23275;48.914;12.566;2022-11-25T07:28:35;2.20;99.90
37410;DHT22;23275;48.914;12.566;2022-11-25T07:31:10;2.20;99.90
37410;DHT22;23275;48.914;12.566;2022-11-25T07:33:36;2.20;99.90
37410;DHT22;23275;48.914;12.566;2022-11-25T07:36:06;2.20;99.90
37410;DHT22;23275;48.914;12.566;2022-11-25T07:38:33;2.20;99.90
37410;DHT22;23275;48.914;12.566;2022-11-25T07:41:13;2.20;99.90
37410;DHT22;23275;48.914;12.566;2022-11-25T07:43:39;2.30;99.90
37410;DHT22;23275;48.914;12.566;2022-11-25T07:46:12;2.30;99.90
37410;DHT22;23275;48.914;12.566;2022-11-25T07:48:38;2.30;99.90
37410;DHT22;23275;48.914;12.566;2022-11-25T07:51:04;2.40;99.90
37410;DHT22;23275;48.914;12.566;2022-11-25T07:53:30;2.40;99.90
37410;DHT22;23275;48.914;12.566;2022-11-25T07:55:59;2.60;99.90
37410;DHT22;23275;48.914;12.566;2022-11-25T07:58:25;2.70;99.90
37410;DHT22;23275;48.914;12.566;2022-11-25T08:00:51;2.70;99.90
37410;DHT22;23275;48.914;12.566;2022-11-25T08:03:16;2.70;99.90
37410;DHT22;23275;48.914;12.566;2022-11-25T08:05:42;2.70;99.90
37410;DHT22;23275;48.914;12.566;2022-11-25T08:08:07;2.80;99.90
37410;DHT22;23275;48.914;12.566;2022-11-25T08:10:33;2.70;99.90
37410;DHT22;23275;48.914;12.566;2022-11-25T08:12:58;2.80;99.90
37410;DHT22;23275;48.914;12.566;2022-11-25T08:15:24;2.80;99.90
37410;DHT22;23275;48.914;12.566;2022-11-25T08:17:49;2.90;99.90
37410;DHT22;23275;48.914;12.566;2022-11-25T08:20:17;3.00;99.90
37410;DHT22;23275;48.914;12.566;2022-11-25T08:22:42;3.30;99.90
37410;DHT22;23275;48.914;12.566;2022-11-25T08:25:08;3.40;99.90
37410;DHT22;23275;48.914;12.566;2022-11-25T08:27:34;3.40;99.90
37410;DHT22;23275;48.914;12.566;2022-11-25T08:29:59;3.40;99.90
37410;DHT22;23275;48.914;12.566;2022-11-25T08:32:25;3.40;99.90
37410;DHT22;23275;48.914;12.566;2022-11-25T08:34:50;3.50;99.90
37410;DHT22;23275;48.914;12.566;2022-11-25T08:37:16;3.50;99.90
37410;DHT22;23275;48.914;12.566;2022-11-25T08:39:41;3.50;99.90
37410;DHT22;23275;48.914;12.566;2022-11-25T08:42:07;3.40;99.90
37410;DHT22;23275;48.914;12.566;2022-11-25T08:44:33;3.30;99.90
37410;DHT22;23275;48.914;12.566;2022-11-25T08:46:59;3.40;99.90
37410;DHT22;23275;48.914;12.566;2022-11-25T08:49:25;3.60;99.90
37410;DHT22;23275;48.914;12.566;2022-11-25T08:51:51;3.90;99.90
37410;DHT22;23275;48.914;12.566;2022-11-25T08:54:17;4.10;99.90
37410;DHT22;23275;48.914;12.566;2022-11-25T08:56:42;4.30;99.90
37410;DHT22;23275;48.914;12.566;2022-11-25T08:59:08;4.40;99.90
37410;DHT22;23275;48.914;12.566;2022-11-25T09:01:33;4.50;99.90
37410;DHT22;23275;48.914;12.566;2022-11-25T09:03:59;4.60;99.90
37410;DHT22;23275;48.914;12.566;2022-11-25T09:06:26;4.50;99.90
37410;DHT22;23275;48.914;12.566;2022-11-25T09:08:58;4.50;99.90
37410;DHT22;23275;48.914;12.566;2022-11-25T09:11:26;4.30;99.90
37410;DHT22;23275;48.914;12.566;2022-11-25T09:13:51;4.20;99.90
37410;DHT22;23275;48.914;12.566;2022-11-25T09:16:17;4.10;99.90
37410;DHT22;23275;48.914;12.566;2022-11-25T09:18:43;4.00;99.90
37410;DHT22;23275;48.914;12.566;2022-11-25T09:21:12;3.90;99.90
37410;DHT22;23275;48.914;12.566;2022-11-25T09:23:39;3.80;99.90
37410;DHT22;23275;48.914;12.566;2022-11-25T09:26:05;3.90;99.90
37410;DHT22;23275;48.914;12.566;2022-11-25T09:28:31;3.90;99.90
37410;DHT22;23275;48.914;12.566;2022-11-25T09:30:57;4.00;99.90
37410;DHT22;23275;48.914;12.566;2022-11-25T09:33:22;4.00;99.90
37410;DHT22;23275;48.914;12.566;2022-11-25T09:35:49;4.00;99.90
37410;DHT22;23275;48.914;12.566;2022-11-25T09:38:15;4.10;99.90
37410;DHT22;23275;48.914;12.566;2022-11-25T09:49:36;4.50;99.90
37410;DHT22;23275;48.914;12.566;2022-11-25T09:52:08;4.70;99.90
37410;DHT22;23275;48.914;12.566;2022-11-25T09:54:41;4.80;99.90
37410;DHT22;23275;48.914;12.566;2022-11-25T09:57:19;4.90;99.90
37410;DHT22;23275;48.914;12.566;2022-11-25T10:02:43;5.20;99.90
37410;DHT22;23275;48.914;12.566;2022-11-25T10:05:28;5.30;99.90
37410;DHT22;23275;48.914;12.566;2022-11-25T10:08:00;5.30;99.90
37410;DHT22;23275;48.914;12.566;2022-11-25T10:10:30;5.30;99.90
37410;DHT22;23275;48.914;12.566;2022-11-25T10:12:57;5.30;99.90
37410;DHT22;23275;48.914;12.566;2022-11-25T10:15:33;5.30;99.90
37410;DHT22;23275;48.914;12.566;2022-11-25T10:18:05;5.30;99.90
37410;DHT22;23275;48.914;12.566;2022-11-25T10:20:37;5.30;99.90
37410;DHT22;23275;48.914;12.566;2022-11-25T10:23:14;5.30;99.90
37410;DHT22;23275;48.914;12.566;2022-11-25T10:25:45;5.40;99.90
37410;DHT22;23275;48.914;12.566;2022-11-25T10:30:44;5.50;99.90
37410;DHT22;23275;48.914;12.566;2022-11-25T10:33:34;5.50;99.90
37410;DHT22;23275;48.914;12.566;2022-11-25T10:36:09;5.70;99.90
37410;DHT22;23275;48.914;12.566;2022-11-25T10:41:12;5.80;99.90
37410;DHT22;23275;48.914;12.566;2022-11-25T10:43:41;5.90;99.90
37410;DHT22;23275;48.914;12.566;2022-11-25T10:51:48;6.00;99.90
37410;DHT22;23275;48.914;12.566;2022-11-25T10:54:27;5.90;99.90
37410;DHT22;23275;48.914;12.566;2022-11-25T10:57:03;5.90;99.90
37410;DHT22;23275;48.914;12.566;2022-11-25T10:59:41;5.90;99.90
37410;DHT22;23275;48.914;12.566;2022-11-25T11:02:26;5.90;99.90
37410;DHT22;23275;48.914;12.566;2022-11-25T11:07:45;6.20;99.90
37410;DHT22;23275;48.914;12.566;2022-11-25T11:10:20;6.40;99.90
37410;DHT22;23275;48.914;12.566;2022-11-25T11:15:28;6.50;99.90
37410;DHT22;23275;48.914;12.566;2022-11-25T11:17:55;6.50;99.90
37410;DHT22;23275;48.914;12.566;2022-11-25T11:20:30;6.60;99.90
37410;DHT22;23275;48.914;12.566;2022-11-25T11:23:10;6.80;99.90
37410;DHT22;23275;48.914;12.566;2022-11-25T11:25:38;6.90;99.90
37410;DHT22;23275;48.914;12.566;2022-11-25T11:36:43;7.30;99.90
37410;DHT22;23275;48.914;12.566;2022-11-25T11:42:52;7.70;99.90
37410;DHT22;23275;48.914;12.566;2022-11-25T11:45:44;7.70;99.90
37410;DHT22;23275;48.914;12.566;2022-11-25T11:48:24;7.60;99.90
37410;DHT22;23275;48.914;12.566;2022-11-25T11:53:40;7.60;99.90
37410;DHT22;23275;48.914;12.566;2022-11-25T12:03:57;7.70;99.90
37410;DHT22;23275;48.914;12.566;2022-11-25T12:06:27;7.80;99.90
37410;DHT22;23275;48.914;12.566;2022-11-25T12:09:02;7.80;99.90
37410;DHT22;23275;48.914;12.566;2022-11-25T12:11:33;7.70;99.90
37410;DHT22;23275;48.914;12.566;2022-11-25T12:14:05;7.60;99.90
37410;DHT22;23275;48.914;12.566;2022-11-25T12:16:47;7.60;99.90
37410;DHT22;23275;48.914;12.566;2022-11-25T12:22:30;7.30;99.90
37410;DHT22;23275;48.914;12.566;2022-11-25T12:25:21;7.30;99.90
37410;DHT22;23275;48.914;12.566;2022-11-25T12:28:00;7.30;99.90
37410;DHT22;23275;48.914;12.566;2022-11-25T12:30:35;7.40;99.90
37410;DHT22;23275;48.914;12.566;2022-11-25T12:33:23;7.50;99.90
37410;DHT22;23275;48.914;12.566;2022-11-25T12:36:19;7.60;99.90
37410;DHT22;23275;48.914;12.566;2022-11-25T12:38:54;7.60;99.90
37410;DHT22;23275;48.914;12.566;2022-11-25T12:46:46;7.90;99.90
37410;DHT22;23275;48.914;12.566;2022-11-25T12:49:42;8.10;99.90
37410;DHT22;23275;48.914;12.566;2022-11-25T13:00:40;7.60;99.90
37410;DHT22;23275;48.914;12.566;2022-11-25T13:03:46;7.50;99.90
37410;DHT22;23275;48.914;12.566;2022-11-25T13:09:28;7.20;99.90
37410;DHT22;23275;48.914;12.566;2022-11-25T13:12:12;7.20;99.90
37410;DHT22;23275;48.914;12.566;2022-11-25T13:17:14;7.10;99.90
37410;DHT22;23275;48.914;12.566;2022-11-25T13:19:40;7.00;99.90
37410;DHT22;23275;48.914;12.566;2022-11-25T13:24:48;6.90;99.90
37410;DHT22;23275;48.914;12.566;2022-11-25T13:27:31;6.90;99.90
37410;DHT22;23275;48.914;12.566;2022-11-25T13:29:57;6.90;99.90
37410;DHT22;23275;48.914;12.566;2022-11-25T13:32:37;6.90;99.90
37410;DHT22;23275;48.914;12.566;2022-11-25T13:37:54;6.80;99.90
37410;DHT22;23275;48.914;12.566;2022-11-25T13:42:46;6.70;99.90
37410;DHT22;23275;48.914;12.566;2022-11-25T13:45:36;6.70;99.90
37410;DHT22;23275;48.914;12.566;2022-11-25T13:48:29;6.60;99.90
37410;DHT22;23275;48.914;12.566;2022-11-25T13:51:20;6.60;99.90
37410;DHT22;23275;48.914;12.566;2022-11-25T13:53:56;6.60;99.90
37410;DHT22;23275;48.914;12.566;2022-11-25T13:56:34;6.50;99.90
37410;DHT22;23275;48.914;12.566;2022-11-25T14:01:36;6.50;99.90
37410;DHT22;23275;48.914;12.566;2022-11-25T14:04:07;6.40;99.90
37410;DHT22;23275;48.914;12.566;2022-11-25T14:06:43;6.40;99.90
37410;DHT22;23275;48.914;12.566;2022-11-25T14:09:41;6.40;99.90
37410;DHT22;23275;48.914;12.566;2022-11-25T14:12:29;6.40;99.90
37410;DHT22;23275;48.914;12.566;2022-11-25T14:15:26;6.40;99.90
37410;DHT22;23275;48.914;12.566;2022-11-25T14:18:16;6.40;99.90
37410;DHT22;23275;48.914;12.566;2022-11-25T14:23:46;6.40;99.90
37410;DHT22;23275;48.914;12.566;2022-11-25T14:26:34;6.40;99.90
37410;DHT22;23275;48.914;12.566;2022-11-25T14:29:05;6.30;99.90
37410;DHT22;23275;48.914;12.566;2022-11-25T14:31:46;6.20;99.90
37410;DHT22;23275;48.914;12.566;2022-11-25T14:34:35;6.20;99.90
37410;DHT22;23275;48.914;12.566;2022-11-25T14:37:32;6.20;99.90
37410;DHT22;23275;48.914;12.566;2022-11-25T14:40:10;6.20;99.90
37410;DHT22;23275;48.914;12.566;2022-11-25T14:42:41;6.10;99.90
37410;DHT22;23275;48.914;12.566;2022-11-25T14:45:21;6.10;99.90
37410;DHT22;23275;48.914;12.566;2022-11-25T14:47:47;6.10;99.90
37410;DHT22;23275;48.914;12.566;2022-11-25T14:50:13;6.00;99.90
37410;DHT22;23275;48.914;12.566;2022-11-25T14:52:40;6.00;99.90
37410;DHT22;23275;48.914;12.566;2022-11-25T14:55:08;6.00;99.90
37410;DHT22;23275;48.914;12.566;2022-11-25T14:57:36;5.90;99.90
37410;DHT22;23275;48.914;12.566;2022-11-25T15:00:15;5.90;99.90
37410;DHT22;23275;48.914;12.566;2022-11-25T15:02:57;5.90;99.90
37410;DHT22;23275;48.914;12.566;2022-11-25T15:05:26;5.90;99.90
37410;DHT22;23275;48.914;12.566;2022-11-25T15:08:02;5.90;99.90
37410;DHT22;23275;48.914;12.566;2022-11-25T15:10:35;5.90;99.90
37410;DHT22;23275;48.914;12.566;2022-11-25T15:13:13;5.90;99.90
37410;DHT22;23275;48.914;12.566;2022-11-25T15:15:44;5.90;99.90
37410;DHT22;23275;48.914;12.566;2022-11-25T15:18:16;5.90;99.90
37410;DHT22;23275;48.914;12.566;2022-11-25T15:20:46;5.80;99.90
37410;DHT22;23275;48.914;12.566;2022-11-25T15:23:18;5.80;99.90
37410;DHT22;23275;48.914;12.566;2022-11-25T15:25:54;5.80;99.90
37410;DHT22;23275;48.914;12.566;2022-11-25T15:28:19;5.80;99.90
37410;DHT22;23275;48.914;12.566;2022-11-25T15:30:56;5.80;99.90
37410;DHT22;23275;48.914;12.566;2022-11-25T15:33:23;5.80;99.90
37410;DHT22;23275;48.914;12.566;2022-11-25T15:35:49;5.70;99.90
37410;DHT22;23275;48.914;12.566;2022-11-25T15:38:17;5.60;99.90
37410;DHT22;23275;48.914;12.566;2022-11-25T15:40:54;5.60;99.90
37410;DHT22;23275;48.914;12.566;2022-11-25T15:43:25;5.60;99.90
37410;DHT22;23275;48.914;12.566;2022-11-25T15:45:59;5.60;99.90
37410;DHT22;23275;48.914;12.566;2022-11-25T15:48:31;5.60;99.90
37410;DHT22;23275;48.914;12.566;2022-11-25T15:51:20;5.60;99.90
37410;DHT22;23275;48.914;12.566;2022-11-25T15:54:02;5.60;99.90
37410;DHT22;23275;48.914;12.566;2022-11-25T15:56:32;5.60;99.90
37410;DHT22;23275;48.914;12.566;2022-11-25T15:58:59;5.60;99.90
37410;DHT22;23275;48.914;12.566;2022-11-25T16:01:26;5.60;99.90
37410;DHT22;23275;48.914;12.566;2022-11-25T16:04:08;5.60;99.90
37410;DHT22;23275;48.914;12.566;2022-11-25T16:06:35;5.60;99.90
37410;DHT22;23275;48.914;12.566;2022-11-25T16:09:01;5.60;99.90
37410;DHT22;23275;48.914;12.566;2022-11-25T16:11:29;5.60;99.90
37410;DHT22;23275;48.914;12.566;2022-11-25T16:14:26;5.60;99.90
37410;DHT22;23275;48.914;12.566;2022-11-25T16:17:00;5.60;99.90
37410;DHT22;23275;48.914;12.566;2022-11-25T16:19:33;5.60;99.90
37410;DHT22;23275;48.914;12.566;2022-11-25T16:22:03;5.60;99.90
37410;DHT22;23275;48.914;12.566;2022-11-25T16:30:16;5.70;99.90
37410;DHT22;23275;48.914;12.566;2022-11-25T16:32:42;5.60;99.90
37410;DHT22;23275;48.914;12.566;2022-11-25T16:35:16;5.50;99.90
37410;DHT22;23275;48.914;12.566;2022-11-25T16:37:43;5.50;99.90
37410;DHT22;23275;48.914;12.566;2022-11-25T16:40:13;5.50;99.90
37410;DHT22;23275;48.914;12.566;2022-11-25T16:42:39;5.50;99.90
37410;DHT22;23275;48.914;12.566;2022-11-25T16:45:22;5.60;99.90
37410;DHT22;23275;48.914;12.566;2022-11-25T16:47:49;5.60;99.90
37410;DHT22;23275;48.914;12.566;2022-11-25T16:50:16;5.60;99.90
37410;DHT22;23275;48.914;12.566;2022-11-25T16:52:42;5.50;99.90
37410;DHT22;23275;48.914;12.566;2022-11-25T16:55:08;5.50;99.90
37410;DHT22;23275;48.914;12.566;2022-11-25T16:57:34;5.50;99.90
37410;DHT22;23275;48.914;12.566;2022-11-25T17:00:02;5.50;99.90
37410;DHT22;23275;48.914;12.566;2022-11-25T17:02:33;5.50;99.90
37410;DHT22;23275;48.914;12.566;2022-11-25T17:05:13;5.50;99.90
37410;DHT22;23275;48.914;12.566;2022-11-25T17:07:39;5.60;99.90
37410;DHT22;23275;48.914;12.566;2022-11-25T17:10:05;5.60;99.90
37410;DHT22;23275;48.914;12.566;2022-11-25T17:12:33;5.60;99.90
37410;DHT22;23275;48.914;12.566;2022-11-25T17:14:59;5.60;99.90
37410;DHT22;23275;48.914;12.566;2022-11-25T17:17:26;5.60;99.90
37410;DHT22;23275;48.914;12.566;2022-11-25T17:19:52;5.60;99.90
37410;DHT22;23275;48.914;12.566;2022-11-25T17:22:21;5.60;99.90